Pagina principale
METAR-TAF:

METAR-TAF

Aeroporti :

Aeroporto Internazionale Toncontín

Tegucigalpa, Honduras

latitudine: 14-03N, longitudine: 087-13W, altezza: 994 m

Osservazione

Il bollettino è stato emesso 1 ora e 4 minuti fa, alle 22:00 UTC
Vento 8 kt da sud
Temperature 31°C
Umidità 29%
Pressione 1016 hPa
Visibilità 10 km o più
Poco nuvoloso ad un'altezza di 3200 ft

METAR: MHTG 182200Z 17008KT 9999 FEW032 31/11 Q1016 A3000 NOSIG

Ora: 17:04 (23:04 UTC)

Previsione

Il bollettino è stato emesso 7 ore e 4 minuti fa, alle 16:00 UTC
Previsione valida dal 18 alle 18 UTC al 19 alle 18 UTC
Vento 6 kt da sud
Visibilità: 7000 m
Poco nuvoloso ad un'altezza di 3200 ft
Evoluzione graduale
dal 19 alle 03 UTC al 19 alle 05 UTC
Vento kt da nord
Nubi sparse ad un'altezza di 2600 ft
Evoluzione graduale
dal 19 alle 14 UTC al 19 alle 16 UTC
Vento 6 kt da nord
Visibilità 10 km o più
Poco nuvoloso ad un'altezza di 2800 ft
Evoluzione graduale
dal 19 alle 03 UTC al 19 alle 05 UTC
Vento kt da nord
Evoluzione graduale
dal 19 alle 16 UTC al 19 alle 18 UTC
Vento 8 kt da nord/nord-est

TAF: MHTG 181600Z 1818/1918 17006KT 7000 FEW032 TX31/1821Z TN14/1912Z BECMG 1903/1905 00000KT SCT026 BECMG 1914/1916 05008KT MHLM 181600Z 1818/1912 01006KT 9999 FEW028 TX37/1820Z TN23/1912Z BECMG 1903/1905 00000KT BECMG 1916/1918 02008KT

Osservazioni e previsioni meteorologiche di più di 4000 aeroporti (messaggi METAR e TAF).

Le stazioni disponibili sono rappresentate dai dischi gialli e rossi sulla carta.

Puntare il mouse per vedere il nome della stazione.

Clicca sopra per visualizzare le osservazioni e previsioni meteorologiche.

Per cambiare la mappa : fare clic sui pulsanti verdi con una croce nera per ingrandire, il pulsante verde con un trattino per diminuire, o sulla freccia verde per le mappe adiacenti.


METAR-TAF: